sensor_id;sensor_type;location;lat;lon;timestamp;temperature;humidity
20700;DHT22;10511;51.232;9.420;2023-02-03T00:01:56;4.50;99.90
20700;DHT22;10511;51.232;9.420;2023-02-03T00:04:23;4.50;99.90
20700;DHT22;10511;51.232;9.420;2023-02-03T00:06:50;4.50;99.90
20700;DHT22;10511;51.232;9.420;2023-02-03T00:09:17;4.60;99.90
20700;DHT22;10511;51.232;9.420;2023-02-03T00:11:45;4.60;99.90
20700;DHT22;10511;51.232;9.420;2023-02-03T00:14:13;4.50;99.90
20700;DHT22;10511;51.232;9.420;2023-02-03T00:16:40;4.60;99.90
20700;DHT22;10511;51.232;9.420;2023-02-03T00:19:07;4.70;99.90
20700;DHT22;10511;51.232;9.420;2023-02-03T00:21:34;4.70;99.90
20700;DHT22;10511;51.232;9.420;2023-02-03T00:24:00;4.80;99.90
20700;DHT22;10511;51.232;9.420;2023-02-03T00:26:27;4.80;99.90
20700;DHT22;10511;51.232;9.420;2023-02-03T00:28:54;4.90;99.90
20700;DHT22;10511;51.232;9.420;2023-02-03T00:31:23;5.00;99.90
20700;DHT22;10511;51.232;9.420;2023-02-03T00:33:53;5.00;99.90
20700;DHT22;10511;51.232;9.420;2023-02-03T00:36:21;5.00;99.90
20700;DHT22;10511;51.232;9.420;2023-02-03T00:38:47;5.00;99.90
20700;DHT22;10511;51.232;9.420;2023-02-03T00:41:14;5.10;99.90
20700;DHT22;10511;51.232;9.420;2023-02-03T00:43:42;5.30;99.90
20700;DHT22;10511;51.232;9.420;2023-02-03T00:46:08;5.40;99.90
20700;DHT22;10511;51.232;9.420;2023-02-03T00:48:37;5.50;99.90
20700;DHT22;10511;51.232;9.420;2023-02-03T00:51:04;5.50;99.90
20700;DHT22;10511;51.232;9.420;2023-02-03T00:53:31;5.50;99.90
20700;DHT22;10511;51.232;9.420;2023-02-03T00:55:58;5.60;99.90
20700;DHT22;10511;51.232;9.420;2023-02-03T00:58:25;5.60;99.90
20700;DHT22;10511;51.232;9.420;2023-02-03T01:00:53;5.60;99.90
20700;DHT22;10511;51.232;9.420;2023-02-03T01:03:20;5.60;99.90
20700;DHT22;10511;51.232;9.420;2023-02-03T01:05:48;5.60;99.90
20700;DHT22;10511;51.232;9.420;2023-02-03T01:08:15;5.70;99.90
20700;DHT22;10511;51.232;9.420;2023-02-03T01:10:42;5.70;99.90
20700;DHT22;10511;51.232;9.420;2023-02-03T01:13:09;5.70;99.90
20700;DHT22;10511;51.232;9.420;2023-02-03T01:15:36;5.80;99.90
20700;DHT22;10511;51.232;9.420;2023-02-03T01:18:03;5.80;99.90
20700;DHT22;10511;51.232;9.420;2023-02-03T01:20:30;5.80;99.90
20700;DHT22;10511;51.232;9.420;2023-02-03T01:22:58;5.80;99.90
20700;DHT22;10511;51.232;9.420;2023-02-03T01:25:25;5.90;99.90
20700;DHT22;10511;51.232;9.420;2023-02-03T01:27:52;5.80;99.90
20700;DHT22;10511;51.232;9.420;2023-02-03T01:30:18;5.90;99.90
20700;DHT22;10511;51.232;9.420;2023-02-03T01:32:45;5.90;99.90
20700;DHT22;10511;51.232;9.420;2023-02-03T01:35:12;5.90;99.90
20700;DHT22;10511;51.232;9.420;2023-02-03T01:37:39;5.90;99.90
20700;DHT22;10511;51.232;9.420;2023-02-03T01:40:09;5.90;99.90
20700;DHT22;10511;51.232;9.420;2023-02-03T01:42:36;5.90;99.90
20700;DHT22;10511;51.232;9.420;2023-02-03T01:45:04;5.90;99.90
20700;DHT22;10511;51.232;9.420;2023-02-03T01:47:33;5.90;99.90
20700;DHT22;10511;51.232;9.420;2023-02-03T01:50:07;5.90;99.90
20700;DHT22;10511;51.232;9.420;2023-02-03T01:52:35;6.00;99.90
20700;DHT22;10511;51.232;9.420;2023-02-03T01:55:09;6.00;99.90
20700;DHT22;10511;51.232;9.420;2023-02-03T01:57:41;6.00;99.90
20700;DHT22;10511;51.232;9.420;2023-02-03T02:00:11;6.00;99.90
20700;DHT22;10511;51.232;9.420;2023-02-03T02:02:38;6.00;99.90
20700;DHT22;10511;51.232;9.420;2023-02-03T02:05:09;6.00;99.90
20700;DHT22;10511;51.232;9.420;2023-02-03T02:07:37;6.00;99.90
20700;DHT22;10511;51.232;9.420;2023-02-03T02:10:08;6.00;99.90
20700;DHT22;10511;51.232;9.420;2023-02-03T02:12:35;6.10;99.90
20700;DHT22;10511;51.232;9.420;2023-02-03T02:15:02;6.10;99.90
20700;DHT22;10511;51.232;9.420;2023-02-03T02:17:52;6.10;99.90
20700;DHT22;10511;51.232;9.420;2023-02-03T02:20:47;6.10;99.90
20700;DHT22;10511;51.232;9.420;2023-02-03T02:26:55;6.10;99.90
20700;DHT22;10511;51.232;9.420;2023-02-03T02:32:34;6.10;99.90
20700;DHT22;10511;51.232;9.420;2023-02-03T02:35:11;6.10;99.90
20700;DHT22;10511;51.232;9.420;2023-02-03T02:37:48;6.10;99.90
20700;DHT22;10511;51.232;9.420;2023-02-03T02:40:22;6.10;99.90
20700;DHT22;10511;51.232;9.420;2023-02-03T02:42:59;6.10;99.90
20700;DHT22;10511;51.232;9.420;2023-02-03T02:45:29;6.00;99.90
20700;DHT22;10511;51.232;9.420;2023-02-03T02:48:04;6.00;99.90
20700;DHT22;10511;51.232;9.420;2023-02-03T02:50:36;6.10;99.90
20700;DHT22;10511;51.232;9.420;2023-02-03T02:53:05;6.10;99.90
20700;DHT22;10511;51.232;9.420;2023-02-03T02:55:34;6.10;99.90
20700;DHT22;10511;51.232;9.420;2023-02-03T02:58:06;6.10;99.90
20700;DHT22;10511;51.232;9.420;2023-02-03T03:00:35;6.10;99.90
20700;DHT22;10511;51.232;9.420;2023-02-03T03:03:14;6.10;99.90
20700;DHT22;10511;51.232;9.420;2023-02-03T03:05:45;6.10;99.90
20700;DHT22;10511;51.232;9.420;2023-02-03T03:08:14;6.10;99.90
20700;DHT22;10511;51.232;9.420;2023-02-03T03:10:42;6.10;99.90
20700;DHT22;10511;51.232;9.420;2023-02-03T03:13:13;6.20;99.90
20700;DHT22;10511;51.232;9.420;2023-02-03T03:15:43;6.20;99.90
20700;DHT22;10511;51.232;9.420;2023-02-03T03:18:16;6.20;99.90
20700;DHT22;10511;51.232;9.420;2023-02-03T03:20:50;6.20;99.90
20700;DHT22;10511;51.232;9.420;2023-02-03T03:23:20;6.20;99.90
20700;DHT22;10511;51.232;9.420;2023-02-03T03:25:53;6.30;99.90
20700;DHT22;10511;51.232;9.420;2023-02-03T03:28:24;6.30;99.90
20700;DHT22;10511;51.232;9.420;2023-02-03T03:30:53;6.30;99.90
20700;DHT22;10511;51.232;9.420;2023-02-03T03:33:22;6.30;99.90
20700;DHT22;10511;51.232;9.420;2023-02-03T03:35:56;6.30;99.90
20700;DHT22;10511;51.232;9.420;2023-02-03T03:38:29;6.30;99.90
20700;DHT22;10511;51.232;9.420;2023-02-03T03:41:02;6.30;99.90
20700;DHT22;10511;51.232;9.420;2023-02-03T03:43:33;6.30;99.90
20700;DHT22;10511;51.232;9.420;2023-02-03T03:46:07;6.30;99.90
20700;DHT22;10511;51.232;9.420;2023-02-03T03:48:39;6.40;99.90
20700;DHT22;10511;51.232;9.420;2023-02-03T03:51:17;6.40;99.90
20700;DHT22;10511;51.232;9.420;2023-02-03T03:53:47;6.40;99.90
20700;DHT22;10511;51.232;9.420;2023-02-03T03:56:18;6.50;99.90
20700;DHT22;10511;51.232;9.420;2023-02-03T03:58:47;6.50;99.90
20700;DHT22;10511;51.232;9.420;2023-02-03T04:01:16;6.60;99.90
20700;DHT22;10511;51.232;9.420;2023-02-03T04:03:47;6.60;99.90
20700;DHT22;10511;51.232;9.420;2023-02-03T04:06:14;6.60;99.90
20700;DHT22;10511;51.232;9.420;2023-02-03T04:08:41;6.70;99.90
20700;DHT22;10511;51.232;9.420;2023-02-03T04:11:08;6.60;99.90
20700;DHT22;10511;51.232;9.420;2023-02-03T04:13:35;6.60;99.90
20700;DHT22;10511;51.232;9.420;2023-02-03T04:16:02;6.60;99.90
20700;DHT22;10511;51.232;9.420;2023-02-03T04:18:29;6.60;99.90
20700;DHT22;10511;51.232;9.420;2023-02-03T04:20:57;6.60;99.90
20700;DHT22;10511;51.232;9.420;2023-02-03T04:23:24;6.60;99.90
20700;DHT22;10511;51.232;9.420;2023-02-03T04:25:51;6.60;99.90
20700;DHT22;10511;51.232;9.420;2023-02-03T04:28:17;6.60;99.90
20700;DHT22;10511;51.232;9.420;2023-02-03T04:30:44;6.60;99.90
20700;DHT22;10511;51.232;9.420;2023-02-03T04:33:11;6.50;99.90
20700;DHT22;10511;51.232;9.420;2023-02-03T04:35:38;6.60;99.90
20700;DHT22;10511;51.232;9.420;2023-02-03T04:38:06;6.60;99.90
20700;DHT22;10511;51.232;9.420;2023-02-03T04:40:33;6.60;99.90
20700;DHT22;10511;51.232;9.420;2023-02-03T04:43:05;6.60;99.90
20700;DHT22;10511;51.232;9.420;2023-02-03T04:45:32;6.60;99.90
20700;DHT22;10511;51.232;9.420;2023-02-03T04:47:59;6.50;99.90
20700;DHT22;10511;51.232;9.420;2023-02-03T04:50:25;6.50;99.90
20700;DHT22;10511;51.232;9.420;2023-02-03T04:52:52;6.40;99.90
20700;DHT22;10511;51.232;9.420;2023-02-03T04:55:20;6.40;99.90
20700;DHT22;10511;51.232;9.420;2023-02-03T04:57:48;6.40;99.90
20700;DHT22;10511;51.232;9.420;2023-02-03T05:00:15;6.30;99.90
20700;DHT22;10511;51.232;9.420;2023-02-03T05:02:42;6.30;99.90
20700;DHT22;10511;51.232;9.420;2023-02-03T05:05:09;6.30;99.90
20700;DHT22;10511;51.232;9.420;2023-02-03T05:07:36;6.30;99.90
20700;DHT22;10511;51.232;9.420;2023-02-03T05:10:03;6.40;99.90
20700;DHT22;10511;51.232;9.420;2023-02-03T05:12:32;6.40;99.90
20700;DHT22;10511;51.232;9.420;2023-02-03T05:14:59;6.50;99.90
20700;DHT22;10511;51.232;9.420;2023-02-03T05:17:25;6.60;99.90
20700;DHT22;10511;51.232;9.420;2023-02-03T05:19:52;6.70;99.90
20700;DHT22;10511;51.232;9.420;2023-02-03T05:22:19;6.90;99.90
20700;DHT22;10511;51.232;9.420;2023-02-03T05:24:46;7.00;99.90
20700;DHT22;10511;51.232;9.420;2023-02-03T05:27:13;7.00;99.90
20700;DHT22;10511;51.232;9.420;2023-02-03T05:29:41;7.10;99.90
20700;DHT22;10511;51.232;9.420;2023-02-03T05:32:08;7.10;99.90
20700;DHT22;10511;51.232;9.420;2023-02-03T05:34:35;7.10;99.90
20700;DHT22;10511;51.232;9.420;2023-02-03T05:37:10;7.10;99.90
20700;DHT22;10511;51.232;9.420;2023-02-03T05:39:57;7.10;99.90
20700;DHT22;10511;51.232;9.420;2023-02-03T05:42:47;7.20;99.90
20700;DHT22;10511;51.232;9.420;2023-02-03T05:45:14;7.20;99.90
20700;DHT22;10511;51.232;9.420;2023-02-03T05:47:41;7.20;99.90
20700;DHT22;10511;51.232;9.420;2023-02-03T05:50:08;7.30;99.90
20700;DHT22;10511;51.232;9.420;2023-02-03T05:52:35;7.30;99.90
20700;DHT22;10511;51.232;9.420;2023-02-03T05:55:03;7.30;99.90
20700;DHT22;10511;51.232;9.420;2023-02-03T05:57:30;7.20;99.90
20700;DHT22;10511;51.232;9.420;2023-02-03T05:59:57;7.20;99.90
20700;DHT22;10511;51.232;9.420;2023-02-03T06:02:25;7.20;99.90
20700;DHT22;10511;51.232;9.420;2023-02-03T06:04:52;7.20;99.90
20700;DHT22;10511;51.232;9.420;2023-02-03T06:07:18;7.20;99.90
20700;DHT22;10511;51.232;9.420;2023-02-03T06:09:45;7.30;99.90
20700;DHT22;10511;51.232;9.420;2023-02-03T06:12:13;7.30;99.90
20700;DHT22;10511;51.232;9.420;2023-02-03T06:14:40;7.40;99.90
20700;DHT22;10511;51.232;9.420;2023-02-03T06:17:07;7.40;99.90
20700;DHT22;10511;51.232;9.420;2023-02-03T06:19:35;7.30;99.90
20700;DHT22;10511;51.232;9.420;2023-02-03T06:22:02;7.30;99.90
20700;DHT22;10511;51.232;9.420;2023-02-03T06:24:29;7.40;99.90
20700;DHT22;10511;51.232;9.420;2023-02-03T06:26:56;7.50;99.90
20700;DHT22;10511;51.232;9.420;2023-02-03T06:29:23;7.50;99.90
20700;DHT22;10511;51.232;9.420;2023-02-03T06:31:50;7.60;99.90
20700;DHT22;10511;51.232;9.420;2023-02-03T06:34:16;7.50;99.90
20700;DHT22;10511;51.232;9.420;2023-02-03T06:36:45;7.60;99.90
20700;DHT22;10511;51.232;9.420;2023-02-03T06:39:13;7.60;99.90
20700;DHT22;10511;51.232;9.420;2023-02-03T06:41:40;7.60;99.90
20700;DHT22;10511;51.232;9.420;2023-02-03T06:44:07;7.50;99.90
20700;DHT22;10511;51.232;9.420;2023-02-03T06:46:34;7.60;99.90
20700;DHT22;10511;51.232;9.420;2023-02-03T06:49:00;7.70;99.90
20700;DHT22;10511;51.232;9.420;2023-02-03T06:51:27;7.70;99.90
20700;DHT22;10511;51.232;9.420;2023-02-03T06:53:55;7.70;99.90
20700;DHT22;10511;51.232;9.420;2023-02-03T06:56:23;7.70;99.90
20700;DHT22;10511;51.232;9.420;2023-02-03T06:58:50;7.60;99.90
20700;DHT22;10511;51.232;9.420;2023-02-03T07:01:17;7.60;99.90
20700;DHT22;10511;51.232;9.420;2023-02-03T07:03:43;7.60;99.90
20700;DHT22;10511;51.232;9.420;2023-02-03T07:06:11;7.60;99.90
20700;DHT22;10511;51.232;9.420;2023-02-03T07:08:38;7.60;99.90
20700;DHT22;10511;51.232;9.420;2023-02-03T07:11:07;7.60;99.90
20700;DHT22;10511;51.232;9.420;2023-02-03T07:13:34;7.50;99.90
20700;DHT22;10511;51.232;9.420;2023-02-03T07:16:01;7.60;99.90
20700;DHT22;10511;51.232;9.420;2023-02-03T07:18:28;7.60;99.90
20700;DHT22;10511;51.232;9.420;2023-02-03T07:20:56;7.60;99.90
20700;DHT22;10511;51.232;9.420;2023-02-03T07:23:23;7.60;99.90
20700;DHT22;10511;51.232;9.420;2023-02-03T07:25:50;7.70;99.90
20700;DHT22;10511;51.232;9.420;2023-02-03T07:28:18;7.70;99.90
20700;DHT22;10511;51.232;9.420;2023-02-03T07:30:47;7.70;99.90
20700;DHT22;10511;51.232;9.420;2023-02-03T07:33:14;7.70;99.90
20700;DHT22;10511;51.232;9.420;2023-02-03T07:35:41;7.70;99.90
20700;DHT22;10511;51.232;9.420;2023-02-03T07:38:07;7.60;99.90
20700;DHT22;10511;51.232;9.420;2023-02-03T07:40:35;7.60;99.90
20700;DHT22;10511;51.232;9.420;2023-02-03T07:43:02;7.60;99.90
20700;DHT22;10511;51.232;9.420;2023-02-03T07:45:30;7.60;99.90
20700;DHT22;10511;51.232;9.420;2023-02-03T07:47:57;7.60;99.90
20700;DHT22;10511;51.232;9.420;2023-02-03T07:50:23;7.60;99.90
20700;DHT22;10511;51.232;9.420;2023-02-03T07:52:50;7.60;99.90
20700;DHT22;10511;51.232;9.420;2023-02-03T07:55:17;7.60;99.90
20700;DHT22;10511;51.232;9.420;2023-02-03T07:57:44;7.70;99.90
20700;DHT22;10511;51.232;9.420;2023-02-03T08:00:13;7.70;99.90
20700;DHT22;10511;51.232;9.420;2023-02-03T08:02:42;7.80;99.90
20700;DHT22;10511;51.232;9.420;2023-02-03T08:05:09;7.80;99.90
20700;DHT22;10511;51.232;9.420;2023-02-03T08:07:36;7.90;99.90
20700;DHT22;10511;51.232;9.420;2023-02-03T08:10:03;7.90;99.90
20700;DHT22;10511;51.232;9.420;2023-02-03T08:12:30;7.90;99.90
20700;DHT22;10511;51.232;9.420;2023-02-03T08:14:57;7.90;99.90
20700;DHT22;10511;51.232;9.420;2023-02-03T08:17:24;7.90;99.90
20700;DHT22;10511;51.232;9.420;2023-02-03T08:19:52;7.90;99.90
20700;DHT22;10511;51.232;9.420;2023-02-03T08:22:19;7.80;99.90
20700;DHT22;10511;51.232;9.420;2023-02-03T08:24:46;7.80;99.90
20700;DHT22;10511;51.232;9.420;2023-02-03T08:27:15;7.80;99.90
20700;DHT22;10511;51.232;9.420;2023-02-03T08:29:42;7.80;99.90
20700;DHT22;10511;51.232;9.420;2023-02-03T08:32:11;7.80;99.90
20700;DHT22;10511;51.232;9.420;2023-02-03T08:34:38;7.90;99.90
20700;DHT22;10511;51.232;9.420;2023-02-03T08:37:07;7.90;99.90
20700;DHT22;10511;51.232;9.420;2023-02-03T08:39:34;7.90;99.90
20700;DHT22;10511;51.232;9.420;2023-02-03T08:42:01;7.90;99.90
20700;DHT22;10511;51.232;9.420;2023-02-03T08:44:28;7.90;99.90
20700;DHT22;10511;51.232;9.420;2023-02-03T08:46:55;7.90;99.90
20700;DHT22;10511;51.232;9.420;2023-02-03T08:49:24;7.90;99.90
20700;DHT22;10511;51.232;9.420;2023-02-03T08:51:52;7.90;99.90
20700;DHT22;10511;51.232;9.420;2023-02-03T08:54:20;7.90;99.90
20700;DHT22;10511;51.232;9.420;2023-02-03T08:56:47;7.90;99.90
20700;DHT22;10511;51.232;9.420;2023-02-03T08:59:14;7.90;99.90
20700;DHT22;10511;51.232;9.420;2023-02-03T09:01:41;7.90;99.90
20700;DHT22;10511;51.232;9.420;2023-02-03T09:04:10;7.90;99.90
20700;DHT22;10511;51.232;9.420;2023-02-03T09:06:38;7.90;99.90
20700;DHT22;10511;51.232;9.420;2023-02-03T09:09:05;7.90;99.90
20700;DHT22;10511;51.232;9.420;2023-02-03T09:11:33;7.80;99.90
20700;DHT22;10511;51.232;9.420;2023-02-03T09:14:00;7.80;99.90
20700;DHT22;10511;51.232;9.420;2023-02-03T09:16:26;7.70;99.90
20700;DHT22;10511;51.232;9.420;2023-02-03T09:18:55;7.80;99.90
20700;DHT22;10511;51.232;9.420;2023-02-03T09:21:22;7.80;99.90
20700;DHT22;10511;51.232;9.420;2023-02-03T09:23:49;7.70;99.90
20700;DHT22;10511;51.232;9.420;2023-02-03T09:26:17;7.70;99.90
20700;DHT22;10511;51.232;9.420;2023-02-03T09:28:45;7.70;99.90
20700;DHT22;10511;51.232;9.420;2023-02-03T09:31:14;7.70;99.90
20700;DHT22;10511;51.232;9.420;2023-02-03T09:33:42;7.70;99.90
20700;DHT22;10511;51.232;9.420;2023-02-03T09:36:10;7.80;99.90
20700;DHT22;10511;51.232;9.420;2023-02-03T09:38:37;7.90;99.90
20700;DHT22;10511;51.232;9.420;2023-02-03T09:41:13;7.90;99.90
20700;DHT22;10511;51.232;9.420;2023-02-03T09:43:47;7.90;99.90
20700;DHT22;10511;51.232;9.420;2023-02-03T09:46:18;7.90;99.90
20700;DHT22;10511;51.232;9.420;2023-02-03T09:48:48;8.00;99.90
20700;DHT22;10511;51.232;9.420;2023-02-03T09:51:19;8.00;99.90
20700;DHT22;10511;51.232;9.420;2023-02-03T09:53:51;8.10;99.90
20700;DHT22;10511;51.232;9.420;2023-02-03T09:56:26;8.10;99.90
20700;DHT22;10511;51.232;9.420;2023-02-03T09:58:56;8.10;99.90
20700;DHT22;10511;51.232;9.420;2023-02-03T10:01:24;8.10;99.90
20700;DHT22;10511;51.232;9.420;2023-02-03T10:03:59;8.10;99.90
20700;DHT22;10511;51.232;9.420;2023-02-03T10:06:32;8.10;99.90
20700;DHT22;10511;51.232;9.420;2023-02-03T10:09:33;8.20;99.90
20700;DHT22;10511;51.232;9.420;2023-02-03T10:12:19;8.20;99.90
20700;DHT22;10511;51.232;9.420;2023-02-03T10:15:02;8.20;99.90
20700;DHT22;10511;51.232;9.420;2023-02-03T10:17:34;8.20;99.90
20700;DHT22;10511;51.232;9.420;2023-02-03T10:20:07;8.30;99.90
20700;DHT22;10511;51.232;9.420;2023-02-03T10:22:42;8.20;99.90
20700;DHT22;10511;51.232;9.420;2023-02-03T10:25:18;8.20;99.90
20700;DHT22;10511;51.232;9.420;2023-02-03T10:27:50;8.20;99.90
20700;DHT22;10511;51.232;9.420;2023-02-03T10:30:21;8.20;99.90
20700;DHT22;10511;51.232;9.420;2023-02-03T10:32:49;8.20;99.90
20700;DHT22;10511;51.232;9.420;2023-02-03T10:35:19;8.20;99.90
20700;DHT22;10511;51.232;9.420;2023-02-03T10:37:49;8.20;99.90
20700;DHT22;10511;51.232;9.420;2023-02-03T10:40:16;8.20;99.90
20700;DHT22;10511;51.232;9.420;2023-02-03T10:42:46;8.30;99.90
20700;DHT22;10511;51.232;9.420;2023-02-03T10:45:36;8.30;99.90
20700;DHT22;10511;51.232;9.420;2023-02-03T10:48:04;8.30;99.90
20700;DHT22;10511;51.232;9.420;2023-02-03T10:50:35;8.30;99.90
20700;DHT22;10511;51.232;9.420;2023-02-03T10:53:20;8.30;99.90
20700;DHT22;10511;51.232;9.420;2023-02-03T10:55:49;8.30;99.90
20700;DHT22;10511;51.232;9.420;2023-02-03T10:58:28;8.30;99.90
20700;DHT22;10511;51.232;9.420;2023-02-03T11:01:04;8.40;99.90
20700;DHT22;10511;51.232;9.420;2023-02-03T11:03:31;8.40;99.90
20700;DHT22;10511;51.232;9.420;2023-02-03T11:06:07;8.40;99.90
20700;DHT22;10511;51.232;9.420;2023-02-03T11:08:36;8.40;99.90
20700;DHT22;10511;51.232;9.420;2023-02-03T11:11:05;8.40;99.90
20700;DHT22;10511;51.232;9.420;2023-02-03T11:13:34;8.40;99.90
20700;DHT22;10511;51.232;9.420;2023-02-03T11:16:04;8.50;99.90
20700;DHT22;10511;51.232;9.420;2023-02-03T11:18:43;8.60;99.90
20700;DHT22;10511;51.232;9.420;2023-02-03T11:21:17;8.70;99.90
20700;DHT22;10511;51.232;9.420;2023-02-03T11:23:48;8.60;99.90
20700;DHT22;10511;51.232;9.420;2023-02-03T11:26:20;8.70;99.90
20700;DHT22;10511;51.232;9.420;2023-02-03T11:28:49;8.70;99.90
20700;DHT22;10511;51.232;9.420;2023-02-03T11:31:23;8.80;99.90
20700;DHT22;10511;51.232;9.420;2023-02-03T11:33:54;8.90;99.90
20700;DHT22;10511;51.232;9.420;2023-02-03T11:36:25;8.90;99.90
20700;DHT22;10511;51.232;9.420;2023-02-03T11:41:50;8.90;99.90
20700;DHT22;10511;51.232;9.420;2023-02-03T11:44:20;8.90;99.90
20700;DHT22;10511;51.232;9.420;2023-02-03T11:46:52;8.80;99.90
20700;DHT22;10511;51.232;9.420;2023-02-03T11:52:47;8.80;99.90
20700;DHT22;10511;51.232;9.420;2023-02-03T11:55:25;8.80;99.90
20700;DHT22;10511;51.232;9.420;2023-02-03T11:58:05;8.80;99.90
20700;DHT22;10511;51.232;9.420;2023-02-03T12:00:40;8.80;99.90
20700;DHT22;10511;51.232;9.420;2023-02-03T12:03:33;8.80;99.90
20700;DHT22;10511;51.232;9.420;2023-02-03T12:09:14;8.70;99.90
20700;DHT22;10511;51.232;9.420;2023-02-03T12:14:48;8.70;99.90
20700;DHT22;10511;51.232;9.420;2023-02-03T12:17:45;8.70;99.90
20700;DHT22;10511;51.232;9.420;2023-02-03T12:20:30;8.70;99.90
20700;DHT22;10511;51.232;9.420;2023-02-03T12:23:08;8.70;99.90
20700;DHT22;10511;51.232;9.420;2023-02-03T12:25:50;8.70;99.90
20700;DHT22;10511;51.232;9.420;2023-02-03T12:28:30;8.70;99.90
20700;DHT22;10511;51.232;9.420;2023-02-03T12:31:03;8.60;99.90
20700;DHT22;10511;51.232;9.420;2023-02-03T12:33:41;8.60;99.90
20700;DHT22;10511;51.232;9.420;2023-02-03T12:36:13;8.70;99.90
20700;DHT22;10511;51.232;9.420;2023-02-03T12:38:45;8.70;99.90
20700;DHT22;10511;51.232;9.420;2023-02-03T12:41:20;8.70;99.90
20700;DHT22;10511;51.232;9.420;2023-02-03T12:43:51;8.60;99.90
20700;DHT22;10511;51.232;9.420;2023-02-03T12:46:22;8.60;99.90
20700;DHT22;10511;51.232;9.420;2023-02-03T12:48:55;8.60;99.90
20700;DHT22;10511;51.232;9.420;2023-02-03T12:51:32;8.60;99.90
20700;DHT22;10511;51.232;9.420;2023-02-03T12:54:04;8.60;99.90
20700;DHT22;10511;51.232;9.420;2023-02-03T12:56:38;8.70;99.90
20700;DHT22;10511;51.232;9.420;2023-02-03T12:59:11;8.70;99.90
20700;DHT22;10511;51.232;9.420;2023-02-03T13:01:46;8.60;99.90
20700;DHT22;10511;51.232;9.420;2023-02-03T13:04:19;8.60;99.90
20700;DHT22;10511;51.232;9.420;2023-02-03T13:06:57;8.60;99.90
20700;DHT22;10511;51.232;9.420;2023-02-03T13:09:32;8.60;99.90
20700;DHT22;10511;51.232;9.420;2023-02-03T13:12:06;8.60;99.90
20700;DHT22;10511;51.232;9.420;2023-02-03T13:14:39;8.50;99.90
20700;DHT22;10511;51.232;9.420;2023-02-03T13:17:12;8.50;99.90
20700;DHT22;10511;51.232;9.420;2023-02-03T13:19:45;8.50;99.90
20700;DHT22;10511;51.232;9.420;2023-02-03T13:22:16;8.60;99.90
20700;DHT22;10511;51.232;9.420;2023-02-03T13:24:47;8.60;99.90
20700;DHT22;10511;51.232;9.420;2023-02-03T13:27:29;8.60;99.90
20700;DHT22;10511;51.232;9.420;2023-02-03T13:30:10;8.50;99.90
20700;DHT22;10511;51.232;9.420;2023-02-03T13:32:55;8.50;99.90
20700;DHT22;10511;51.232;9.420;2023-02-03T13:35:41;8.50;99.90
20700;DHT22;10511;51.232;9.420;2023-02-03T13:38:21;8.40;99.90
20700;DHT22;10511;51.232;9.420;2023-02-03T13:41:01;8.30;99.90
20700;DHT22;10511;51.232;9.420;2023-02-03T13:43:32;8.20;99.90
20700;DHT22;10511;51.232;9.420;2023-02-03T13:46:00;8.20;99.90
20700;DHT22;10511;51.232;9.420;2023-02-03T13:48:29;8.00;99.90
20700;DHT22;10511;51.232;9.420;2023-02-03T13:51:05;7.80;99.90
20700;DHT22;10511;51.232;9.420;2023-02-03T13:53:36;7.60;99.90
20700;DHT22;10511;51.232;9.420;2023-02-03T13:56:06;7.50;99.90
20700;DHT22;10511;51.232;9.420;2023-02-03T13:58:36;7.40;99.90
20700;DHT22;10511;51.232;9.420;2023-02-03T14:03:47;7.30;99.90
20700;DHT22;10511;51.232;9.420;2023-02-03T14:12:53;7.40;99.90
20700;DHT22;10511;51.232;9.420;2023-02-03T14:15:27;7.60;99.90
20700;DHT22;10511;51.232;9.420;2023-02-03T14:21:18;7.80;99.90
20700;DHT22;10511;51.232;9.420;2023-02-03T14:23:57;7.90;99.90
20700;DHT22;10511;51.232;9.420;2023-02-03T14:26:41;7.80;99.90
20700;DHT22;10511;51.232;9.420;2023-02-03T14:29:23;7.80;99.90
20700;DHT22;10511;51.232;9.420;2023-02-03T14:31:55;7.90;99.90
20700;DHT22;10511;51.232;9.420;2023-02-03T14:34:29;7.90;99.90
20700;DHT22;10511;51.232;9.420;2023-02-03T14:37:11;7.90;99.90
20700;DHT22;10511;51.232;9.420;2023-02-03T14:40:17;7.90;99.90
20700;DHT22;10511;51.232;9.420;2023-02-03T14:43:03;7.90;99.90
20700;DHT22;10511;51.232;9.420;2023-02-03T14:48:44;7.80;99.90
20700;DHT22;10511;51.232;9.420;2023-02-03T14:51:22;7.80;99.90
20700;DHT22;10511;51.232;9.420;2023-02-03T14:54:03;7.80;99.90
20700;DHT22;10511;51.232;9.420;2023-02-03T14:56:45;7.80;99.90
20700;DHT22;10511;51.232;9.420;2023-02-03T14:59:38;7.70;99.90
20700;DHT22;10511;51.232;9.420;2023-02-03T15:02:11;7.70;99.90
20700;DHT22;10511;51.232;9.420;2023-02-03T15:04:41;7.80;99.90
20700;DHT22;10511;51.232;9.420;2023-02-03T15:07:33;7.80;99.90
20700;DHT22;10511;51.232;9.420;2023-02-03T15:10:02;7.80;99.90
20700;DHT22;10511;51.232;9.420;2023-02-03T15:12:34;7.90;99.90
20700;DHT22;10511;51.232;9.420;2023-02-03T15:15:19;7.80;99.90
20700;DHT22;10511;51.232;9.420;2023-02-03T15:17:47;7.70;99.90
20700;DHT22;10511;51.232;9.420;2023-02-03T15:20:25;7.70;99.90
20700;DHT22;10511;51.232;9.420;2023-02-03T15:22:52;7.70;99.90
20700;DHT22;10511;51.232;9.420;2023-02-03T15:25:21;7.70;99.90
20700;DHT22;10511;51.232;9.420;2023-02-03T15:27:50;7.60;99.90
20700;DHT22;10511;51.232;9.420;2023-02-03T15:30:23;7.70;99.90
20700;DHT22;10511;51.232;9.420;2023-02-03T15:32:58;7.60;99.90
20700;DHT22;10511;51.232;9.420;2023-02-03T15:35:30;7.60;99.90
20700;DHT22;10511;51.232;9.420;2023-02-03T15:37:59;7.60;99.90
20700;DHT22;10511;51.232;9.420;2023-02-03T15:40:33;7.60;99.90
20700;DHT22;10511;51.232;9.420;2023-02-03T15:43:07;7.50;99.90
20700;DHT22;10511;51.232;9.420;2023-02-03T15:45:41;7.40;99.90
20700;DHT22;10511;51.232;9.420;2023-02-03T15:48:13;7.40;99.90
20700;DHT22;10511;51.232;9.420;2023-02-03T15:50:45;7.40;99.90
20700;DHT22;10511;51.232;9.420;2023-02-03T15:53:18;7.40;99.90
20700;DHT22;10511;51.232;9.420;2023-02-03T15:55:47;7.50;99.90
20700;DHT22;10511;51.232;9.420;2023-02-03T15:58:18;7.40;99.90
20700;DHT22;10511;51.232;9.420;2023-02-03T16:00:51;7.40;99.90
20700;DHT22;10511;51.232;9.420;2023-02-03T16:03:20;7.40;99.90
20700;DHT22;10511;51.232;9.420;2023-02-03T16:05:48;7.40;99.90
20700;DHT22;10511;51.232;9.420;2023-02-03T16:08:35;7.40;99.90
20700;DHT22;10511;51.232;9.420;2023-02-03T16:11:21;7.40;99.90
20700;DHT22;10511;51.232;9.420;2023-02-03T16:13:48;7.40;99.90
20700;DHT22;10511;51.232;9.420;2023-02-03T16:16:19;7.40;99.90
20700;DHT22;10511;51.232;9.420;2023-02-03T16:18:52;7.40;99.90
20700;DHT22;10511;51.232;9.420;2023-02-03T16:21:27;7.40;99.90
20700;DHT22;10511;51.232;9.420;2023-02-03T16:23:54;7.50;99.90
20700;DHT22;10511;51.232;9.420;2023-02-03T16:26:23;7.40;99.90
20700;DHT22;10511;51.232;9.420;2023-02-03T16:29:12;7.40;99.90
20700;DHT22;10511;51.232;9.420;2023-02-03T16:31:59;7.40;99.90
20700;DHT22;10511;51.232;9.420;2023-02-03T16:34:44;7.40;99.90
20700;DHT22;10511;51.232;9.420;2023-02-03T16:37:30;7.40;99.90
20700;DHT22;10511;51.232;9.420;2023-02-03T16:40:17;7.30;99.90
20700;DHT22;10511;51.232;9.420;2023-02-03T16:43:02;7.40;99.90
20700;DHT22;10511;51.232;9.420;2023-02-03T16:45:52;7.30;99.90